createdAt,value
2023-05-09T00:01:40.218Z,13.50
2023-05-09T00:04:07.443Z,13.38
2023-05-09T00:06:34.440Z,13.45
2023-05-09T00:09:02.372Z,13.23
2023-05-09T00:11:29.312Z,13.59
2023-05-09T00:13:56.654Z,13.30
2023-05-09T00:16:24.444Z,13.27
2023-05-09T00:18:51.847Z,13.50
2023-05-09T00:21:18.844Z,13.11
2023-05-09T00:23:47.431Z,13.15
2023-05-09T00:26:14.374Z,13.51
2023-05-09T00:28:43.420Z,12.86
2023-05-09T00:31:10.547Z,13.37
2023-05-09T00:33:37.531Z,13.10
2023-05-09T00:36:04.728Z,12.80
2023-05-09T00:38:31.752Z,12.61
2023-05-09T00:40:58.848Z,12.62
2023-05-09T00:43:25.910Z,13.26
2023-05-09T00:45:53.071Z,12.83
2023-05-09T00:48:20.170Z,12.77
2023-05-09T00:50:52.803Z,12.81
2023-05-09T00:53:20.957Z,12.84
2023-05-09T00:55:48.359Z,12.84
2023-05-09T00:58:15.779Z,13.09
2023-05-09T01:00:43.612Z,12.39
2023-05-09T01:03:11.673Z,12.91
2023-05-09T01:05:51.911Z,12.92
2023-05-09T01:08:28.188Z,12.31
2023-05-09T01:11:18.082Z,12.89
2023-05-09T01:13:57.982Z,12.88
2023-05-09T01:17:03.149Z,12.89
2023-05-09T01:19:33.489Z,12.78
2023-05-09T01:22:04.945Z,12.67
2023-05-09T01:24:34.950Z,12.92
2023-05-09T01:27:20.948Z,12.89
2023-05-09T01:29:51.244Z,12.43
2023-05-09T01:32:23.132Z,12.86
2023-05-09T01:34:54.608Z,12.84
2023-05-09T01:37:30.733Z,12.59
2023-05-09T01:40:05.975Z,12.81
2023-05-09T01:42:41.457Z,12.61
2023-05-09T01:45:10.814Z,12.75
2023-05-09T01:47:40.523Z,12.49
2023-05-09T01:50:11.084Z,12.84
2023-05-09T01:52:39.135Z,12.71
2023-05-09T01:55:07.981Z,12.38
2023-05-09T01:57:37.688Z,12.93
2023-05-09T02:00:08.143Z,12.93
2023-05-09T02:02:41.096Z,12.68
2023-05-09T02:05:12.333Z,12.48
2023-05-09T02:07:41.985Z,12.47
2023-05-09T02:10:10.811Z,12.70
2023-05-09T02:12:38.468Z,12.50
2023-05-09T02:15:06.753Z,11.89
2023-05-09T02:17:33.962Z,12.38
2023-05-09T02:20:05.500Z,12.43
2023-05-09T02:22:34.758Z,12.51
2023-05-09T02:25:05.046Z,12.34
2023-05-09T02:27:35.091Z,12.21
2023-05-09T02:30:07.616Z,12.25
2023-05-09T02:32:36.013Z,12.07
2023-05-09T02:35:04.379Z,12.19
2023-05-09T02:37:31.975Z,11.65
2023-05-09T02:39:59.541Z,11.92
2023-05-09T02:42:30.393Z,11.96
2023-05-09T02:44:57.482Z,11.59
2023-05-09T02:47:25.870Z,11.63
2023-05-09T02:49:53.137Z,11.60
2023-05-09T02:52:21.578Z,11.64
2023-05-09T02:54:48.725Z,11.60
2023-05-09T02:57:16.012Z,11.71
2023-05-09T02:59:43.026Z,11.80
2023-05-09T03:02:09.970Z,11.83
2023-05-09T03:04:37.232Z,11.86
2023-05-09T03:07:04.599Z,11.69
2023-05-09T03:09:33.699Z,11.80
2023-05-09T03:12:01.043Z,11.48
2023-05-09T03:14:28.076Z,10.98
2023-05-09T03:16:55.213Z,11.24
2023-05-09T03:19:28.337Z,10.64
2023-05-09T03:21:55.480Z,10.59
2023-05-09T03:24:23.311Z,10.37
2023-05-09T03:26:50.443Z,10.89
2023-05-09T03:29:17.344Z,10.99
2023-05-09T03:31:44.363Z,10.95
2023-05-09T03:34:15.322Z,10.90
2023-05-09T03:36:44.537Z,10.82
2023-05-09T03:39:13.547Z,10.93
2023-05-09T03:41:44.467Z,10.93
2023-05-09T03:44:12.662Z,11.37
2023-05-09T03:46:39.699Z,11.34
2023-05-09T03:49:07.202Z,11.37
2023-05-09T03:51:35.259Z,11.41
2023-05-09T03:54:04.785Z,10.57
2023-05-09T03:56:32.003Z,10.65
2023-05-09T03:58:59.307Z,10.81
2023-05-09T04:01:27.537Z,11.17
2023-05-09T04:03:57.788Z,10.82
2023-05-09T04:06:26.151Z,10.93
2023-05-09T04:08:53.222Z,10.86
2023-05-09T04:11:21.852Z,11.02
2023-05-09T04:13:49.623Z,11.28
2023-05-09T04:16:30.819Z,10.97
2023-05-09T04:18:58.061Z,11.15
2023-05-09T04:21:25.934Z,11.42
2023-05-09T04:23:57.073Z,11.06
2023-05-09T04:26:31.646Z,11.56
2023-05-09T04:28:59.815Z,10.77
2023-05-09T04:31:27.998Z,11.53
2023-05-09T04:33:56.345Z,11.49
2023-05-09T04:36:23.546Z,10.94
2023-05-09T04:38:55.024Z,11.11
2023-05-09T04:41:24.948Z,11.57
2023-05-09T04:43:52.778Z,11.09
2023-05-09T04:46:23.096Z,10.96
2023-05-09T04:48:51.495Z,11.58
2023-05-09T04:51:19.488Z,11.22
2023-05-09T04:53:46.777Z,11.58
2023-05-09T04:56:14.901Z,11.18
2023-05-09T04:58:42.739Z,11.48
2023-05-09T05:01:11.342Z,11.22
2023-05-09T05:03:39.333Z,10.72
2023-05-09T05:06:07.058Z,11.07
2023-05-09T05:08:36.237Z,10.76
2023-05-09T05:11:03.587Z,11.61
2023-05-09T05:13:31.263Z,11.20
2023-05-09T05:16:01.262Z,11.18
2023-05-09T05:18:28.317Z,11.48
2023-05-09T05:20:59.112Z,11.42
2023-05-09T05:23:26.334Z,11.63
2023-05-09T05:25:54.848Z,10.98
2023-05-09T05:28:22.575Z,11.25
2023-05-09T05:30:49.819Z,11.71
2023-05-09T05:33:16.891Z,11.68
2023-05-09T05:35:44.332Z,11.32
2023-05-09T05:38:11.693Z,11.80
2023-05-09T05:40:39.488Z,11.76
2023-05-09T05:43:07.759Z,11.73
2023-05-09T05:45:38.091Z,10.89
2023-05-09T05:48:08.023Z,11.08
2023-05-09T05:50:36.758Z,11.28
2023-05-09T05:53:04.562Z,11.19
2023-05-09T05:55:31.610Z,11.24
2023-05-09T05:57:58.675Z,11.20
2023-05-09T06:00:26.045Z,10.90
2023-05-09T06:03:02.145Z,11.49
2023-05-09T06:05:45.075Z,11.55
2023-05-09T06:08:12.693Z,11.50
2023-05-09T06:10:39.910Z,11.60
2023-05-09T06:13:07.400Z,11.53
2023-05-09T06:15:36.044Z,11.16
2023-05-09T06:18:03.706Z,11.48
2023-05-09T06:20:30.957Z,11.50
2023-05-09T06:22:58.308Z,11.48
2023-05-09T06:25:25.455Z,11.50
2023-05-09T06:27:52.428Z,10.83
2023-05-09T06:30:26.464Z,10.90
2023-05-09T06:32:55.213Z,11.06
2023-05-09T06:35:22.606Z,11.50
2023-05-09T06:37:50.299Z,10.94
2023-05-09T06:40:17.453Z,11.58
2023-05-09T06:42:45.193Z,11.55
2023-05-09T06:45:12.527Z,11.48
2023-05-09T06:47:39.769Z,11.61
2023-05-09T06:50:07.614Z,11.57
2023-05-09T06:52:34.632Z,10.87
2023-05-09T06:55:01.922Z,11.16
2023-05-09T06:57:29.177Z,11.22
2023-05-09T06:59:56.329Z,11.63
2023-05-09T07:02:23.333Z,11.31
2023-05-09T07:04:50.552Z,11.32
2023-05-09T07:07:17.731Z,11.60
2023-05-09T07:09:44.717Z,11.66
2023-05-09T07:12:11.736Z,10.61
2023-05-09T07:14:38.779Z,10.87
2023-05-09T07:17:22.072Z,11.08
2023-05-09T07:19:50.841Z,11.14
2023-05-09T07:22:17.961Z,11.17
2023-05-09T07:24:46.517Z,10.97
2023-05-09T07:27:13.708Z,11.13
2023-05-09T07:29:40.882Z,11.07
2023-05-09T07:32:08.171Z,11.59
2023-05-09T07:34:36.292Z,11.22
2023-05-09T07:37:03.345Z,11.51
2023-05-09T07:39:30.496Z,11.68
2023-05-09T07:41:57.416Z,11.15
2023-05-09T07:44:24.504Z,11.35
2023-05-09T07:46:51.534Z,11.15
2023-05-09T07:49:22.327Z,11.59
2023-05-09T07:51:49.399Z,11.57
2023-05-09T07:54:16.330Z,11.67
2023-05-09T07:56:46.204Z,11.59
2023-05-09T07:59:13.476Z,11.00
2023-05-09T08:01:40.558Z,11.73
2023-05-09T08:04:09.353Z,11.76
2023-05-09T08:06:37.021Z,11.16
2023-05-09T08:09:04.922Z,11.72
2023-05-09T08:11:36.249Z,11.10
2023-05-09T08:14:03.494Z,11.31
2023-05-09T08:16:30.877Z,11.18
2023-05-09T08:19:07.073Z,11.50
2023-05-09T08:21:34.131Z,11.58
2023-05-09T08:24:01.971Z,10.68
2023-05-09T08:26:29.071Z,11.21
2023-05-09T08:28:56.132Z,11.61
2023-05-09T08:31:23.324Z,11.49
2023-05-09T08:33:50.410Z,11.67
2023-05-09T08:36:17.595Z,11.36
2023-05-09T08:38:44.714Z,11.74
2023-05-09T08:41:11.781Z,11.27
2023-05-09T08:43:40.686Z,11.06
2023-05-09T08:46:09.597Z,11.11
2023-05-09T08:48:37.747Z,11.11
2023-05-09T08:51:06.342Z,11.63
2023-05-09T08:53:33.450Z,11.21
2023-05-09T08:56:03.989Z,11.24
2023-05-09T08:58:32.010Z,9.69
2023-05-09T09:00:59.809Z,11.47
2023-05-09T09:03:27.302Z,10.72
2023-05-09T09:05:55.946Z,10.71
2023-05-09T09:08:23.390Z,11.13
2023-05-09T09:10:50.536Z,11.48
2023-05-09T09:13:18.952Z,11.19
2023-05-09T09:15:47.299Z,11.35
2023-05-09T09:18:22.987Z,11.87
2023-05-09T09:20:58.066Z,11.10
2023-05-09T09:23:27.427Z,11.77
2023-05-09T09:26:05.100Z,11.22
2023-05-09T09:28:32.781Z,11.87
2023-05-09T09:30:59.904Z,11.89
2023-05-09T09:33:28.905Z,11.31
2023-05-09T09:35:57.200Z,11.42
2023-05-09T09:38:24.976Z,11.85
2023-05-09T09:40:51.994Z,11.93
2023-05-09T09:43:19.490Z,11.46
2023-05-09T09:45:51.525Z,11.78
2023-05-09T09:48:33.953Z,10.51
2023-05-09T09:51:19.227Z,11.20
2023-05-09T09:53:47.012Z,11.85
2023-05-09T09:56:14.249Z,11.54
2023-05-09T09:58:41.277Z,11.51
2023-05-09T10:01:20.279Z,11.63
2023-05-09T10:03:47.391Z,11.26
2023-05-09T10:06:16.204Z,11.34
2023-05-09T10:08:46.919Z,11.35
2023-05-09T10:11:15.499Z,11.47
2023-05-09T10:13:43.935Z,11.47
2023-05-09T10:16:11.939Z,11.11
2023-05-09T10:18:43.634Z,11.73
2023-05-09T10:21:15.328Z,11.52
2023-05-09T10:23:48.778Z,11.66
2023-05-09T10:26:25.775Z,11.74
2023-05-09T10:28:57.326Z,11.59
2023-05-09T10:31:29.278Z,11.81
2023-05-09T10:33:56.754Z,11.84
2023-05-09T10:36:26.699Z,11.26
2023-05-09T10:38:55.753Z,11.80
2023-05-09T10:41:24.022Z,11.67
2023-05-09T10:43:51.578Z,11.26
2023-05-09T10:46:19.380Z,11.45
2023-05-09T10:48:48.126Z,11.81
2023-05-09T10:51:16.524Z,11.89
2023-05-09T10:53:45.864Z,11.89
2023-05-09T10:56:32.759Z,11.92
2023-05-09T10:59:00.653Z,11.89
2023-05-09T11:01:31.810Z,11.88
2023-05-09T11:04:00.349Z,11.50
2023-05-09T11:06:50.707Z,11.64
2023-05-09T11:09:30.415Z,11.65
2023-05-09T11:11:58.917Z,11.41
2023-05-09T11:14:33.262Z,11.69
2023-05-09T11:17:03.890Z,11.79
2023-05-09T11:19:46.180Z,11.76
2023-05-09T11:22:21.372Z,11.19
2023-05-09T11:24:50.750Z,11.45
2023-05-09T11:27:21.784Z,11.58
2023-05-09T11:29:53.275Z,11.67
2023-05-09T11:32:21.960Z,11.40
2023-05-09T11:34:50.043Z,11.72
2023-05-09T11:37:18.536Z,11.65
2023-05-09T11:40:12.187Z,11.73
2023-05-09T11:42:43.844Z,11.57
2023-05-09T11:45:13.005Z,11.41
2023-05-09T11:47:41.135Z,11.00
2023-05-09T11:50:10.648Z,10.47
2023-05-09T11:52:38.624Z,10.87
2023-05-09T11:55:12.451Z,11.61
2023-05-09T11:57:50.901Z,11.07
2023-05-09T12:00:29.215Z,11.69
2023-05-09T12:02:56.537Z,11.59
2023-05-09T12:05:23.981Z,10.82
2023-05-09T12:07:52.576Z,11.31
2023-05-09T12:10:21.598Z,11.36
2023-05-09T12:12:50.478Z,11.41
2023-05-09T12:15:19.361Z,11.69
2023-05-09T12:17:49.747Z,10.54
2023-05-09T12:20:18.441Z,11.50
2023-05-09T12:22:45.604Z,10.91
2023-05-09T12:25:12.734Z,10.89
2023-05-09T12:27:41.469Z,11.37
2023-05-09T12:30:11.020Z,11.36
2023-05-09T12:32:40.561Z,11.02
2023-05-09T12:35:09.728Z,11.72
2023-05-09T12:37:44.286Z,11.76
2023-05-09T12:40:13.233Z,10.88
2023-05-09T12:42:44.482Z,11.39
2023-05-09T12:45:12.056Z,11.53
2023-05-09T12:47:39.494Z,11.18
2023-05-09T12:50:14.828Z,11.41
2023-05-09T12:52:58.982Z,11.52
2023-05-09T12:55:31.905Z,11.48
2023-05-09T12:58:01.977Z,11.23
2023-05-09T13:00:46.121Z,11.62
2023-05-09T13:03:27.537Z,11.54
2023-05-09T13:05:56.458Z,11.77
2023-05-09T13:08:23.551Z,11.67
2023-05-09T13:10:53.705Z,11.38
2023-05-09T13:13:28.797Z,11.34
2023-05-09T13:15:56.421Z,11.42
2023-05-09T13:18:24.715Z,11.40
2023-05-09T13:20:52.156Z,11.87
2023-05-09T13:23:19.218Z,11.65
2023-05-09T13:25:46.154Z,11.28
2023-05-09T13:28:13.315Z,11.59
2023-05-09T13:30:40.612Z,11.33
2023-05-09T13:33:24.023Z,11.33
2023-05-09T13:35:52.589Z,11.79
2023-05-09T13:38:19.725Z,11.72
2023-05-09T13:40:46.771Z,10.70
2023-05-09T13:43:13.759Z,11.37
2023-05-09T13:45:40.723Z,11.22
2023-05-09T13:48:07.715Z,11.42
2023-05-09T13:50:34.721Z,11.57
2023-05-09T13:53:02.088Z,11.51
2023-05-09T13:55:30.963Z,11.78
2023-05-09T13:57:58.165Z,11.42
2023-05-09T14:00:26.807Z,11.45
2023-05-09T14:02:54.169Z,10.94
2023-05-09T14:05:21.329Z,11.80
2023-05-09T14:07:48.549Z,11.29
2023-05-09T14:10:16.046Z,11.41
2023-05-09T14:12:47.410Z,11.22
2023-05-09T14:15:14.683Z,11.69
2023-05-09T14:17:43.682Z,11.06
2023-05-09T14:20:11.343Z,10.86
2023-05-09T14:22:38.406Z,10.83
2023-05-09T14:25:05.770Z,11.74
2023-05-09T14:27:34.187Z,11.77
2023-05-09T14:30:01.253Z,11.07
2023-05-09T14:32:28.364Z,11.23
2023-05-09T14:34:55.473Z,11.54
2023-05-09T14:37:22.420Z,11.47
2023-05-09T14:39:49.860Z,11.68
2023-05-09T14:42:17.002Z,11.29
2023-05-09T14:44:45.554Z,11.63
2023-05-09T14:47:13.160Z,12.01
2023-05-09T14:49:40.286Z,11.90
2023-05-09T14:52:07.364Z,11.90
2023-05-09T14:54:35.016Z,11.25
2023-05-09T14:57:04.740Z,11.90
2023-05-09T14:59:32.560Z,12.00
2023-05-09T15:02:00.951Z,11.97
2023-05-09T15:04:30.863Z,11.31
2023-05-09T15:06:59.273Z,10.34
2023-05-09T15:09:27.010Z,11.02
2023-05-09T15:11:55.154Z,11.31
2023-05-09T15:14:22.424Z,11.77
2023-05-09T15:16:51.823Z,11.30
2023-05-09T15:19:19.377Z,11.59
2023-05-09T15:21:46.462Z,11.71
2023-05-09T15:24:13.442Z,11.65
2023-05-09T15:26:40.419Z,11.81
2023-05-09T15:29:07.397Z,11.74
2023-05-09T15:31:37.124Z,11.63
2023-05-09T15:34:04.233Z,11.50
2023-05-09T15:36:32.321Z,11.26
2023-05-09T15:38:59.734Z,11.66
2023-05-09T15:41:27.381Z,11.87
2023-05-09T15:43:54.421Z,11.94
2023-05-09T15:46:21.979Z,11.56
2023-05-09T15:48:49.074Z,11.83
2023-05-09T15:51:16.189Z,12.13
2023-05-09T15:53:43.208Z,12.09
2023-05-09T15:56:10.229Z,11.50
2023-05-09T15:58:37.297Z,11.52
2023-05-09T16:01:06.307Z,11.45
2023-05-09T16:03:34.054Z,11.55
2023-05-09T16:06:01.516Z,11.35
2023-05-09T16:08:28.609Z,11.42
2023-05-09T16:10:55.671Z,11.65
2023-05-09T16:13:22.961Z,11.88
2023-05-09T16:15:51.178Z,11.85
2023-05-09T16:18:18.845Z,11.26
2023-05-09T16:20:45.922Z,11.73
2023-05-09T16:23:13.329Z,11.82
2023-05-09T16:25:40.389Z,11.81
2023-05-09T16:28:08.913Z,11.55
2023-05-09T16:30:36.600Z,10.92
2023-05-09T16:33:03.670Z,11.16
2023-05-09T16:35:30.772Z,11.71
2023-05-09T16:37:57.971Z,11.31
2023-05-09T16:40:25.062Z,11.76
2023-05-09T16:42:53.462Z,11.19
2023-05-09T16:45:20.657Z,11.15
2023-05-09T16:47:47.802Z,11.15
2023-05-09T16:50:14.947Z,11.60
2023-05-09T16:52:42.114Z,11.20
2023-05-09T16:55:09.240Z,11.26
2023-05-09T16:57:36.325Z,11.21
2023-05-09T17:00:03.886Z,10.89
2023-05-09T17:02:30.913Z,11.54
2023-05-09T17:04:58.178Z,11.21
2023-05-09T17:07:25.288Z,11.02
2023-05-09T17:09:52.449Z,11.33
2023-05-09T17:12:19.405Z,11.34
2023-05-09T17:14:48.361Z,10.67
2023-05-09T17:17:17.809Z,10.75
2023-05-09T17:19:45.676Z,11.12
2023-05-09T17:22:12.642Z,10.83
2023-05-09T17:24:39.603Z,11.24
2023-05-09T17:27:06.641Z,10.35
2023-05-09T17:29:33.696Z,11.04
2023-05-09T17:32:01.166Z,10.93
2023-05-09T17:34:29.016Z,10.53
2023-05-09T17:36:56.466Z,10.67
2023-05-09T17:39:23.971Z,11.14
2023-05-09T17:41:51.013Z,11.05
2023-05-09T17:44:18.044Z,11.08
2023-05-09T17:46:45.280Z,11.07
2023-05-09T17:49:14.257Z,11.10
2023-05-09T17:51:41.708Z,11.05
2023-05-09T17:54:09.079Z,10.64
2023-05-09T17:56:36.356Z,10.70
2023-05-09T17:59:03.368Z,10.70
2023-05-09T18:01:30.411Z,10.96
2023-05-09T18:03:57.949Z,10.91
2023-05-09T18:06:26.377Z,10.85
2023-05-09T18:08:53.605Z,10.85
2023-05-09T18:11:20.994Z,9.98
2023-05-09T18:13:48.456Z,10.78
2023-05-09T18:16:15.501Z,10.33
2023-05-09T18:18:42.549Z,10.74
2023-05-09T18:21:09.832Z,10.19
2023-05-09T18:23:37.365Z,10.70
2023-05-09T18:26:04.536Z,10.76
2023-05-09T18:28:39.210Z,9.96
2023-05-09T18:31:09.442Z,10.76
2023-05-09T18:33:39.482Z,10.11
2023-05-09T18:36:09.078Z,10.25
2023-05-09T18:38:39.505Z,10.78
2023-05-09T18:41:08.091Z,10.75
2023-05-09T18:43:36.054Z,10.76
2023-05-09T18:46:05.897Z,10.57
2023-05-09T18:48:33.639Z,10.08
2023-05-09T18:51:00.680Z,10.26
2023-05-09T18:53:29.063Z,10.72
2023-05-09T18:55:58.633Z,10.52
2023-05-09T18:58:25.616Z,10.48
2023-05-09T19:00:53.207Z,9.96
2023-05-09T19:03:21.013Z,10.80
2023-05-09T19:05:48.178Z,10.85
2023-05-09T19:08:15.287Z,10.83
2023-05-09T19:10:42.754Z,10.92
2023-05-09T19:13:09.967Z,10.69
2023-05-09T19:15:37.633Z,10.74
2023-05-09T19:18:04.968Z,10.54
2023-05-09T19:20:32.099Z,10.61
2023-05-09T19:22:59.549Z,10.62
2023-05-09T19:25:27.060Z,10.06
2023-05-09T19:27:54.228Z,10.13
2023-05-09T19:30:21.514Z,10.42
2023-05-09T19:32:48.805Z,9.88
2023-05-09T19:35:16.164Z,10.43
2023-05-09T19:37:43.354Z,10.11
2023-05-09T19:40:11.557Z,9.88
2023-05-09T19:42:39.560Z,9.30
2023-05-09T19:45:07.026Z,9.09
2023-05-09T19:47:34.200Z,10.19
2023-05-09T19:50:02.393Z,9.95
2023-05-09T19:52:32.523Z,9.72
2023-05-09T19:54:59.518Z,9.92
2023-05-09T19:57:26.779Z,9.76
2023-05-09T19:59:54.725Z,9.55
2023-05-09T20:02:22.029Z,10.16
2023-05-09T20:04:50.099Z,9.71
2023-05-09T20:07:17.748Z,9.36
2023-05-09T20:09:45.068Z,10.12
2023-05-09T20:12:13.354Z,10.07
2023-05-09T20:14:40.493Z,10.05
2023-05-09T20:17:07.612Z,9.68
2023-05-09T20:19:34.884Z,9.38
2023-05-09T20:22:02.736Z,9.97
2023-05-09T20:24:33.431Z,10.11
2023-05-09T20:27:02.424Z,9.95
2023-05-09T20:29:29.424Z,10.00
2023-05-09T20:31:56.765Z,10.05
2023-05-09T20:34:24.785Z,9.90
2023-05-09T20:36:54.092Z,9.71
2023-05-09T20:39:22.002Z,9.99
2023-05-09T20:41:50.552Z,10.04
2023-05-09T20:44:18.208Z,10.04
2023-05-09T20:46:46.166Z,9.76
2023-05-09T20:49:13.413Z,9.30
2023-05-09T20:51:40.636Z,9.59
2023-05-09T20:54:07.996Z,9.64
2023-05-09T20:56:35.755Z,9.50
2023-05-09T20:59:04.442Z,9.34
2023-05-09T21:01:34.493Z,8.99
2023-05-09T21:04:01.585Z,9.83
2023-05-09T21:06:28.763Z,9.47
2023-05-09T21:08:55.840Z,9.34
2023-05-09T21:11:22.829Z,9.84
2023-05-09T21:13:50.788Z,9.78
2023-05-09T21:16:17.946Z,9.49
2023-05-09T21:18:45.152Z,9.51
2023-05-09T21:21:12.211Z,9.74
2023-05-09T21:23:39.341Z,9.35
2023-05-09T21:26:06.361Z,9.18
2023-05-09T21:28:33.725Z,9.34
2023-05-09T21:31:03.764Z,9.35
2023-05-09T21:33:31.274Z,9.46
2023-05-09T21:35:59.401Z,9.27
2023-05-09T21:38:26.606Z,9.26
2023-05-09T21:40:53.916Z,9.62
2023-05-09T21:43:21.164Z,9.67
2023-05-09T21:45:48.473Z,9.12
2023-05-09T21:48:17.296Z,9.11
2023-05-09T21:50:47.524Z,9.19
2023-05-09T21:53:14.700Z,9.23
2023-05-09T21:55:41.735Z,9.63
2023-05-09T21:58:08.876Z,9.09
2023-05-09T22:00:35.920Z,9.49
2023-05-09T22:03:03.113Z,9.20
2023-05-09T22:05:30.309Z,9.63
2023-05-09T22:07:57.462Z,9.29
2023-05-09T22:10:24.580Z,9.27
2023-05-09T22:12:51.743Z,9.16
2023-05-09T22:15:18.952Z,9.55
2023-05-09T22:17:48.831Z,8.90
2023-05-09T22:20:16.803Z,9.02
2023-05-09T22:22:44.184Z,9.18
2023-05-09T22:25:11.154Z,9.42
2023-05-09T22:27:39.524Z,9.02
2023-05-09T22:30:07.613Z,9.24
2023-05-09T22:32:34.801Z,9.46
2023-05-09T22:35:02.522Z,9.20
2023-05-09T22:37:29.646Z,9.02
2023-05-09T22:39:56.736Z,8.09
2023-05-09T22:42:23.856Z,9.38
2023-05-09T22:44:50.945Z,9.43
2023-05-09T22:47:18.049Z,9.40
2023-05-09T22:49:45.964Z,8.86
2023-05-09T22:52:13.047Z,8.68
2023-05-09T22:54:40.698Z,9.18
2023-05-09T22:57:07.768Z,7.75
2023-05-09T22:59:34.903Z,9.25
2023-05-09T23:02:02.011Z,9.11
2023-05-09T23:04:29.242Z,9.33
2023-05-09T23:06:56.671Z,9.08
2023-05-09T23:09:23.924Z,9.22
2023-05-09T23:11:51.082Z,9.02
2023-05-09T23:14:18.240Z,9.22
2023-05-09T23:16:45.320Z,8.87
2023-05-09T23:19:12.453Z,8.94
2023-05-09T23:21:39.505Z,9.27
2023-05-09T23:24:06.890Z,8.87
2023-05-09T23:26:33.911Z,9.32
2023-05-09T23:29:00.928Z,9.25
2023-05-09T23:31:28.122Z,8.68
2023-05-09T23:33:55.241Z,9.01
2023-05-09T23:36:22.333Z,8.53
2023-05-09T23:38:49.326Z,8.72
2023-05-09T23:41:16.664Z,9.17
2023-05-09T23:43:43.628Z,9.25
2023-05-09T23:46:10.805Z,8.76
2023-05-09T23:48:37.985Z,8.80
2023-05-09T23:51:05.597Z,9.03
2023-05-09T23:53:35.323Z,9.08
2023-05-09T23:56:02.985Z,9.08
2023-05-09T23:58:30.056Z,8.94
